Waveland, Mississippi
Current Conditions -  °F | °C
As of 11:53 PM on Thursday 18 Dec 2014 (Local Time) from KGPT Reporting Station
Overcast Overcast  
Wind Chill: 54°   Ceiling: 2700
Heat Index: 54°   Visibility: 10mi
Dew Point: 50°   Wind: 6mph
Humidity: 86%   Direction: 30°NNE
Pressure: 30.14"   Gusts: NA
Location:  30.31°N, 89.38°W
Report Text: KGPT 190553Z AUTO 03005KT 10SM OVC027 12/10 A3014 RMK AO2 RAE02 SLP206 P0000 60000 T01220100 10150 20122 401610061 58002 $
Loading
Personal Weather Stations






























Interactive Weather Map New forecast layout! Learn more

10-Day Weather Forecast

Advertisements
Track Severe Weather on mobile